createdAt,value
2022-12-16T00:01:42.544Z,7.93
2022-12-16T00:04:09.484Z,8.15
2022-12-16T00:09:03.242Z,6.68
2022-12-16T00:11:47.525Z,6.85
2022-12-16T00:14:14.437Z,5.90
2022-12-16T00:16:41.388Z,6.87
2022-12-16T00:19:08.241Z,7.80
2022-12-16T00:21:37.987Z,8.82
2022-12-16T00:24:04.941Z,7.18
2022-12-16T00:26:31.860Z,6.95
2022-12-16T00:28:58.705Z,7.57
2022-12-16T00:33:56.442Z,4.70
2022-12-16T00:36:23.340Z,5.20
2022-12-16T00:38:52.486Z,6.57
2022-12-16T00:41:22.426Z,6.68
2022-12-16T00:43:49.245Z,7.20
2022-12-16T00:48:42.959Z,8.43
2022-12-16T00:53:39.557Z,5.70
2022-12-16T00:58:35.408Z,5.72
2022-12-16T01:01:09.286Z,5.32
2022-12-16T01:03:36.939Z,3.62
2022-12-16T01:06:15.579Z,7.75
2022-12-16T01:08:48.895Z,7.43
2022-12-16T01:11:18.197Z,4.93
2022-12-16T01:13:46.397Z,5.07
2022-12-16T01:16:13.417Z,5.20
2022-12-16T01:18:40.328Z,8.68
2022-12-16T01:23:42.630Z,9.57
2022-12-16T01:26:10.925Z,6.15
2022-12-16T01:28:37.759Z,6.87
2022-12-16T01:33:39.726Z,8.35
2022-12-16T01:36:08.095Z,8.68
2022-12-16T01:38:36.156Z,6.57
2022-12-16T01:41:05.535Z,11.12
2022-12-16T01:43:35.996Z,15.80
2022-12-16T01:46:12.185Z,5.22
2022-12-16T01:48:41.785Z,10.20
2022-12-16T01:51:14.738Z,11.93
2022-12-16T01:53:42.821Z,5.20
2022-12-16T01:56:11.071Z,6.70
2022-12-16T01:58:39.033Z,8.25
2022-12-16T02:01:05.969Z,5.20
2022-12-16T02:03:36.770Z,7.85
2022-12-16T02:06:06.224Z,16.08
2022-12-16T02:08:33.235Z,11.68
2022-12-16T02:11:34.008Z,4.22
2022-12-16T02:14:12.751Z,15.38
2022-12-16T02:16:59.971Z,15.50
2022-12-16T02:19:48.383Z,13.10
2022-12-16T02:22:21.297Z,13.07
2022-12-16T02:25:06.872Z,14.18
2022-12-16T02:28:01.652Z,7.05
2022-12-16T02:30:52.142Z,13.18
2022-12-16T02:33:22.488Z,12.98
2022-12-16T02:35:52.073Z,7.25
2022-12-16T02:38:39.778Z,6.85
2022-12-16T02:41:17.364Z,13.38
2022-12-16T02:43:44.158Z,8.68
2022-12-16T02:48:37.792Z,8.50
2022-12-16T02:53:35.679Z,6.40
2022-12-16T02:56:19.457Z,6.05
2022-12-16T02:58:52.653Z,10.77
2022-12-16T03:02:02.365Z,6.45
2022-12-16T03:04:39.265Z,3.15
2022-12-16T03:07:08.272Z,7.60
2022-12-16T03:09:38.642Z,3.65
2022-12-16T03:12:10.015Z,6.60
2022-12-16T03:14:39.835Z,6.40
2022-12-16T03:17:08.536Z,7.32
2022-12-16T03:19:36.676Z,7.15
2022-12-16T03:22:16.099Z,8.65
2022-12-16T03:24:43.277Z,5.05
2022-12-16T03:27:31.315Z,4.97
2022-12-16T03:30:12.714Z,5.80
2022-12-16T03:33:08.845Z,6.07
2022-12-16T03:35:41.081Z,5.05
2022-12-16T03:38:10.832Z,6.97
2022-12-16T03:40:40.223Z,11.07
2022-12-16T03:43:07.672Z,8.27
2022-12-16T03:45:39.448Z,9.52
2022-12-16T03:48:11.217Z,8.48
2022-12-16T03:50:50.364Z,8.70
2022-12-16T03:53:17.213Z,8.90
2022-12-16T03:58:10.692Z,7.45
2022-12-16T04:03:15.172Z,7.37
2022-12-16T04:05:42.170Z,11.38
2022-12-16T04:10:55.278Z,7.50
2022-12-16T04:13:51.333Z,8.57
2022-12-16T04:16:36.989Z,7.37
2022-12-16T04:19:22.769Z,11.20
2022-12-16T04:22:09.080Z,11.35
2022-12-16T04:24:36.341Z,8.18
2022-12-16T04:27:21.656Z,10.10
2022-12-16T04:30:10.321Z,19.00
2022-12-16T04:32:55.727Z,7.57
2022-12-16T04:35:41.341Z,15.13
2022-12-16T04:38:26.829Z,5.07
2022-12-16T04:41:21.191Z,14.90
2022-12-16T04:44:07.010Z,3.30
2022-12-16T04:46:52.736Z,15.07
2022-12-16T04:49:49.062Z,14.05
2022-12-16T04:52:34.684Z,11.85
2022-12-16T04:55:20.314Z,7.18
2022-12-16T04:58:16.689Z,13.82
2022-12-16T05:01:03.833Z,15.45
2022-12-16T05:03:49.593Z,10.40
2022-12-16T05:06:35.769Z,18.65
2022-12-16T05:09:22.020Z,14.48
2022-12-16T05:12:08.142Z,11.10
2022-12-16T05:14:53.850Z,12.95
2022-12-16T05:17:40.276Z,10.23
2022-12-16T05:20:26.317Z,14.00
2022-12-16T05:23:15.395Z,16.40
2022-12-16T05:26:01.008Z,13.30
2022-12-16T05:28:46.586Z,14.98
2022-12-16T05:31:36.183Z,10.68
2022-12-16T05:34:21.888Z,12.52
2022-12-16T05:37:07.360Z,12.50
2022-12-16T05:39:53.980Z,7.22
2022-12-16T05:42:39.743Z,15.25
2022-12-16T05:45:25.176Z,13.35
2022-12-16T05:48:10.707Z,14.20
2022-12-16T05:51:04.341Z,10.98
2022-12-16T05:53:49.985Z,11.60
2022-12-16T05:56:35.623Z,11.55
2022-12-16T05:59:21.246Z,11.10
2022-12-16T06:02:06.921Z,11.93
2022-12-16T06:04:52.615Z,13.82
2022-12-16T06:07:38.247Z,16.42
2022-12-16T06:10:23.711Z,12.23
2022-12-16T06:13:09.383Z,17.92
2022-12-16T06:15:55.001Z,16.62
2022-12-16T06:18:40.449Z,17.45
2022-12-16T06:21:26.183Z,15.38
2022-12-16T06:24:11.684Z,16.23
2022-12-16T06:26:57.346Z,15.63
2022-12-16T06:29:42.870Z,11.12
2022-12-16T06:32:28.468Z,16.85
2022-12-16T06:35:14.180Z,16.98
2022-12-16T06:37:59.670Z,15.30
2022-12-16T06:40:45.286Z,15.25
2022-12-16T06:43:31.104Z,15.68
2022-12-16T06:46:17.076Z,14.65
2022-12-16T06:49:02.653Z,17.10
2022-12-16T06:51:48.107Z,15.65
2022-12-16T06:54:33.827Z,17.37
2022-12-16T06:57:19.341Z,12.10
2022-12-16T07:00:04.787Z,18.87
2022-12-16T07:02:50.761Z,19.27
2022-12-16T07:05:36.083Z,13.30
2022-12-16T07:08:21.797Z,13.50
2022-12-16T07:11:16.011Z,18.58
2022-12-16T07:14:02.461Z,13.95
2022-12-16T07:16:47.993Z,20.92
2022-12-16T07:19:33.655Z,19.10
2022-12-16T07:22:19.271Z,29.37
2022-12-16T07:25:05.551Z,33.67
2022-12-16T07:27:50.795Z,45.58
2022-12-16T07:30:36.520Z,31.27
2022-12-16T07:33:23.449Z,33.35
2022-12-16T07:36:11.647Z,39.88
2022-12-16T07:39:03.756Z,28.33
2022-12-16T07:41:49.179Z,30.60
2022-12-16T07:44:34.822Z,24.67
2022-12-16T07:47:20.558Z,17.85
2022-12-16T07:50:06.075Z,13.52
2022-12-16T07:52:51.885Z,15.30
2022-12-16T07:55:37.581Z,13.57
2022-12-16T07:58:23.152Z,17.37
2022-12-16T08:01:09.801Z,15.18
2022-12-16T08:03:55.917Z,17.45
2022-12-16T08:06:41.604Z,17.12
2022-12-16T08:09:27.193Z,18.45
2022-12-16T08:12:12.963Z,16.10
2022-12-16T08:14:58.585Z,15.15
2022-12-16T08:17:44.140Z,19.42
2022-12-16T08:20:29.960Z,17.83
2022-12-16T08:23:15.680Z,19.55
2022-12-16T08:26:01.254Z,16.62
2022-12-16T08:28:46.872Z,15.85
2022-12-16T08:31:39.928Z,11.48
2022-12-16T08:34:25.489Z,12.82
2022-12-16T08:37:11.295Z,13.13
2022-12-16T08:40:25.762Z,13.35
2022-12-16T08:43:07.863Z,14.75
2022-12-16T08:45:56.775Z,15.80
2022-12-16T08:48:42.416Z,14.57
2022-12-16T08:51:27.972Z,12.15
2022-12-16T08:54:13.472Z,12.68
2022-12-16T08:56:59.141Z,11.77
2022-12-16T08:59:44.935Z,11.02
2022-12-16T09:02:30.746Z,10.10
2022-12-16T09:05:16.863Z,11.02
2022-12-16T09:08:02.488Z,12.15
2022-12-16T09:10:48.054Z,11.80
2022-12-16T09:13:35.018Z,12.57
2022-12-16T09:16:21.241Z,13.82
2022-12-16T09:19:06.914Z,11.75
2022-12-16T09:21:52.912Z,12.05
2022-12-16T09:24:40.094Z,12.80
2022-12-16T09:27:25.556Z,11.70
2022-12-16T09:30:10.862Z,13.02
2022-12-16T09:33:00.810Z,12.52
2022-12-16T09:35:46.372Z,12.50
2022-12-16T09:38:31.955Z,13.23
2022-12-16T09:41:26.731Z,14.00
2022-12-16T09:44:28.112Z,12.48
2022-12-16T09:47:26.873Z,12.50
2022-12-16T09:53:58.229Z,14.23
2022-12-16T09:56:52.357Z,14.32
2022-12-16T09:59:47.416Z,12.80
2022-12-16T10:02:34.779Z,11.45
2022-12-16T10:05:20.914Z,13.23
2022-12-16T10:08:38.994Z,11.57
2022-12-16T10:11:32.510Z,13.25
2022-12-16T10:14:24.323Z,11.93
2022-12-16T10:17:31.836Z,12.48
2022-12-16T10:20:55.164Z,15.32
2022-12-16T10:24:07.100Z,13.50
2022-12-16T10:27:04.748Z,13.07
2022-12-16T10:29:51.940Z,15.77
2022-12-16T10:32:51.223Z,14.65
2022-12-16T10:35:47.891Z,14.43
2022-12-16T10:38:47.882Z,12.15
2022-12-16T10:41:33.886Z,13.07
2022-12-16T10:44:19.449Z,12.07
2022-12-16T10:47:05.273Z,12.18
2022-12-16T10:49:55.046Z,12.50
2022-12-16T10:52:40.431Z,11.77
2022-12-16T10:55:44.466Z,8.98
2022-12-16T10:58:35.925Z,9.60
2022-12-16T11:01:40.111Z,9.48
2022-12-16T11:04:49.399Z,7.82
2022-12-16T11:08:03.912Z,10.05
2022-12-16T11:10:51.935Z,10.15
2022-12-16T11:13:44.283Z,11.45
2022-12-16T11:16:39.737Z,9.55
2022-12-16T11:19:39.555Z,10.48
2022-12-16T11:22:38.082Z,9.15
2022-12-16T11:28:23.732Z,7.35
2022-12-16T11:31:14.435Z,7.65
2022-12-16T11:34:01.324Z,8.00
2022-12-16T11:36:46.748Z,7.80
2022-12-16T11:39:37.483Z,8.15
2022-12-16T11:42:24.073Z,7.47
2022-12-16T11:45:14.903Z,6.75
2022-12-16T11:48:13.498Z,6.50
2022-12-16T11:51:06.227Z,7.25
2022-12-16T11:53:57.019Z,6.82
2022-12-16T11:56:45.313Z,6.62
2022-12-16T12:00:06.316Z,6.30
2022-12-16T12:03:13.793Z,6.55
2022-12-16T12:06:17.436Z,6.20
2022-12-16T12:09:24.092Z,6.30
2022-12-16T12:12:35.741Z,6.40
2022-12-16T12:15:34.269Z,6.40
2022-12-16T12:21:37.332Z,7.43
2022-12-16T12:24:31.521Z,6.87
2022-12-16T12:27:31.944Z,6.32
2022-12-16T12:30:25.440Z,5.95
2022-12-16T12:33:38.885Z,11.48
2022-12-16T12:36:52.467Z,8.90
2022-12-16T12:40:03.841Z,7.30
2022-12-16T12:43:08.599Z,6.85
2022-12-16T12:46:02.260Z,6.80
2022-12-16T12:48:59.712Z,7.57
2022-12-16T12:51:49.618Z,8.23
2022-12-16T12:54:40.814Z,8.35
2022-12-16T12:57:27.946Z,6.93
2022-12-16T13:00:34.331Z,8.20
2022-12-16T13:03:38.117Z,8.20
2022-12-16T13:06:24.877Z,7.20
2022-12-16T13:09:10.444Z,7.78
2022-12-16T13:11:56.531Z,7.95
2022-12-16T13:14:51.404Z,7.22
2022-12-16T13:17:40.643Z,7.32
2022-12-16T13:20:57.149Z,7.40
2022-12-16T13:23:57.768Z,7.12
2022-12-16T13:26:48.329Z,7.70
2022-12-16T13:29:42.508Z,7.75
2022-12-16T13:32:30.798Z,8.07
2022-12-16T13:35:19.661Z,7.32
2022-12-16T13:38:21.969Z,7.68
2022-12-16T13:41:13.368Z,7.90
2022-12-16T13:44:28.949Z,7.10
2022-12-16T13:47:15.030Z,7.47
2022-12-16T13:50:12.630Z,6.78
2022-12-16T13:53:13.679Z,6.70
2022-12-16T13:56:19.363Z,6.72
2022-12-16T13:59:07.891Z,6.80
2022-12-16T14:02:15.664Z,6.75
2022-12-16T14:05:10.786Z,6.20
2022-12-16T14:07:59.750Z,7.05
2022-12-16T14:10:50.651Z,7.07
2022-12-16T14:13:55.040Z,6.97
2022-12-16T14:16:43.372Z,7.50
2022-12-16T14:19:34.611Z,7.65
2022-12-16T14:22:35.297Z,6.82
2022-12-16T14:25:33.448Z,6.75
2022-12-16T14:28:19.186Z,6.40
2022-12-16T14:31:04.638Z,6.15
2022-12-16T14:33:50.192Z,6.55
2022-12-16T14:36:40.903Z,6.93
2022-12-16T14:39:39.679Z,6.07
2022-12-16T14:42:39.059Z,6.10
2022-12-16T14:45:34.893Z,6.40
2022-12-16T14:48:22.923Z,6.80
2022-12-16T14:51:27.972Z,6.45
2022-12-16T14:54:13.334Z,6.18
2022-12-16T14:56:58.670Z,5.95
2022-12-16T14:59:44.217Z,6.22
2022-12-16T15:02:49.206Z,6.62
2022-12-16T15:05:34.673Z,5.43
2022-12-16T15:08:20.016Z,6.28
2022-12-16T15:11:26.050Z,6.35
2022-12-16T15:14:14.046Z,5.87
2022-12-16T15:19:44.831Z,5.35
2022-12-16T15:22:33.932Z,5.37
2022-12-16T15:25:19.793Z,4.60
2022-12-16T15:28:15.478Z,4.87
2022-12-16T15:31:04.057Z,4.43
2022-12-16T15:33:55.277Z,4.70
2022-12-16T15:36:47.162Z,4.07
2022-12-16T15:39:53.435Z,4.25
2022-12-16T15:42:39.076Z,4.22
2022-12-16T15:45:34.196Z,4.60
2022-12-16T15:48:46.209Z,4.90
2022-12-16T15:51:49.635Z,4.15
2022-12-16T15:54:40.241Z,4.72
2022-12-16T15:57:45.289Z,4.25
2022-12-16T16:00:57.185Z,4.85
2022-12-16T16:03:45.422Z,4.57
2022-12-16T16:06:43.582Z,4.35
2022-12-16T16:09:43.879Z,4.90
2022-12-16T16:12:34.030Z,4.45
2022-12-16T16:15:19.553Z,4.50
2022-12-16T16:18:07.583Z,5.50
2022-12-16T16:20:52.920Z,4.50
2022-12-16T16:23:38.458Z,4.87
2022-12-16T16:26:24.100Z,5.05
2022-12-16T16:29:09.595Z,4.97
2022-12-16T16:31:58.195Z,5.03
2022-12-16T16:34:46.189Z,5.32
2022-12-16T16:37:36.859Z,5.20
2022-12-16T16:40:49.319Z,5.10
2022-12-16T16:43:35.365Z,4.90
2022-12-16T16:46:21.527Z,5.45
2022-12-16T16:49:07.107Z,5.22
2022-12-16T16:51:52.672Z,6.00
2022-12-16T16:54:38.113Z,5.50
2022-12-16T16:57:23.569Z,5.18
2022-12-16T17:00:08.717Z,5.40
2022-12-16T17:02:54.520Z,6.62
2022-12-16T17:05:40.108Z,6.25
2022-12-16T17:08:25.573Z,6.55
2022-12-16T17:11:11.186Z,6.28
2022-12-16T17:13:56.395Z,7.03
2022-12-16T17:16:42.039Z,7.78
2022-12-16T17:19:27.309Z,7.80
2022-12-16T17:22:12.599Z,8.07
2022-12-16T17:24:58.087Z,8.88
2022-12-16T17:27:44.607Z,7.90
2022-12-16T17:30:35.237Z,9.20
2022-12-16T17:33:20.829Z,8.85
2022-12-16T17:36:10.534Z,8.95
2022-12-16T17:39:01.808Z,9.70
2022-12-16T17:41:49.085Z,9.98
2022-12-16T17:44:34.245Z,10.05
2022-12-16T17:47:19.667Z,11.35
2022-12-16T17:50:05.116Z,10.50
2022-12-16T17:52:50.694Z,10.05
2022-12-16T17:55:36.063Z,10.38
2022-12-16T17:58:21.314Z,10.43
2022-12-16T18:01:07.011Z,11.20
2022-12-16T18:03:52.512Z,12.20
2022-12-16T18:06:39.091Z,10.75
2022-12-16T18:09:24.604Z,11.20
2022-12-16T18:12:10.025Z,11.43
2022-12-16T18:14:55.658Z,11.65
2022-12-16T18:17:41.137Z,11.65
2022-12-16T18:20:26.860Z,12.20
2022-12-16T18:23:12.983Z,13.18
2022-12-16T18:25:58.525Z,12.13
2022-12-16T18:28:44.156Z,13.43
2022-12-16T18:31:29.696Z,12.82
2022-12-16T18:34:15.312Z,13.88
2022-12-16T18:37:00.981Z,13.55
2022-12-16T18:39:46.160Z,14.38
2022-12-16T18:42:31.943Z,13.93
2022-12-16T18:45:17.516Z,13.98
2022-12-16T18:48:03.184Z,14.87
2022-12-16T18:50:48.533Z,15.45
2022-12-16T18:53:34.206Z,13.27
2022-12-16T18:56:21.761Z,15.00
2022-12-16T18:59:07.229Z,15.55
2022-12-16T19:01:52.940Z,16.70
2022-12-16T19:04:38.695Z,15.45
2022-12-16T19:07:24.188Z,16.30
2022-12-16T19:10:09.778Z,13.80
2022-12-16T19:12:55.235Z,17.23
2022-12-16T19:15:41.723Z,17.98
2022-12-16T19:18:27.634Z,17.70
2022-12-16T19:21:16.242Z,18.70
2022-12-16T19:24:01.929Z,19.10
2022-12-16T19:26:47.314Z,18.42
2022-12-16T19:29:32.819Z,18.50
2022-12-16T19:32:18.472Z,19.58
2022-12-16T19:35:03.932Z,18.20
2022-12-16T19:37:49.560Z,18.77
2022-12-16T19:40:35.424Z,18.10
2022-12-16T19:43:20.882Z,18.62
2022-12-16T19:46:13.117Z,20.15
2022-12-16T19:48:59.385Z,18.90
2022-12-16T19:51:44.992Z,19.30
2022-12-16T19:54:30.446Z,19.52
2022-12-16T19:57:16.038Z,18.77
2022-12-16T20:00:01.641Z,19.08
2022-12-16T20:02:47.666Z,19.95
2022-12-16T20:05:33.673Z,20.75
2022-12-16T20:08:19.163Z,18.65
2022-12-16T20:11:04.884Z,19.17
2022-12-16T20:13:50.532Z,17.95
2022-12-16T20:16:37.267Z,18.15
2022-12-16T20:19:22.978Z,21.08
2022-12-16T20:22:11.870Z,19.95
2022-12-16T20:24:58.492Z,18.25
2022-12-16T20:27:44.303Z,16.87
2022-12-16T20:30:30.472Z,17.05
2022-12-16T20:33:16.166Z,18.05
2022-12-16T20:36:01.653Z,19.42
2022-12-16T20:38:47.212Z,19.05
2022-12-16T20:41:33.020Z,19.87
2022-12-16T20:44:18.586Z,18.70
2022-12-16T20:47:04.027Z,19.00
2022-12-16T20:49:49.562Z,17.87
2022-12-16T20:52:35.115Z,17.15
2022-12-16T20:55:20.655Z,19.65
2022-12-16T20:58:06.032Z,18.15
2022-12-16T21:00:51.659Z,17.67
2022-12-16T21:03:37.399Z,18.58
2022-12-16T21:06:24.503Z,16.85
2022-12-16T21:09:09.946Z,16.73
2022-12-16T21:12:15.319Z,13.70
2022-12-16T21:15:00.441Z,15.57
2022-12-16T21:17:45.873Z,18.52
2022-12-16T21:20:31.478Z,16.65
2022-12-16T21:23:31.746Z,15.15
2022-12-16T21:26:19.840Z,17.85
2022-12-16T21:29:05.980Z,16.95
2022-12-16T21:31:51.635Z,18.58
2022-12-16T21:34:39.298Z,15.77
2022-12-16T21:37:24.718Z,16.85
2022-12-16T21:40:10.358Z,16.92
2022-12-16T21:42:56.304Z,17.75
2022-12-16T21:45:42.026Z,18.17
2022-12-16T21:48:30.187Z,16.05
2022-12-16T21:51:15.761Z,17.05
2022-12-16T21:54:04.897Z,17.30
2022-12-16T21:56:53.243Z,18.27
2022-12-16T21:59:42.045Z,18.33
2022-12-16T22:02:31.206Z,18.05
2022-12-16T22:05:16.695Z,15.57
2022-12-16T22:08:02.489Z,18.77
2022-12-16T22:10:47.871Z,17.25
2022-12-16T22:13:33.471Z,16.40
2022-12-16T22:16:19.012Z,19.00
2022-12-16T22:19:04.492Z,18.30
2022-12-16T22:21:50.163Z,18.27
2022-12-16T22:24:35.698Z,16.92
2022-12-16T22:27:21.320Z,15.20
2022-12-16T22:30:06.936Z,13.07
2022-12-16T22:32:52.522Z,16.50
2022-12-16T22:35:41.991Z,14.15
2022-12-16T22:38:27.431Z,16.20
2022-12-16T22:41:14.529Z,19.33
2022-12-16T22:44:00.238Z,16.67
2022-12-16T22:46:45.919Z,18.62
2022-12-16T22:49:31.908Z,19.62
2022-12-16T22:52:17.715Z,18.20
2022-12-16T22:55:03.245Z,17.10
2022-12-16T22:57:50.842Z,14.75
2022-12-16T23:00:37.437Z,15.88
2022-12-16T23:03:22.968Z,18.80
2022-12-16T23:06:08.632Z,14.13
2022-12-16T23:08:55.235Z,16.27
2022-12-16T23:11:45.313Z,16.75
2022-12-16T23:14:30.684Z,15.93
2022-12-16T23:17:16.276Z,17.45
2022-12-16T23:20:01.760Z,16.62
2022-12-16T23:22:47.374Z,13.68
2022-12-16T23:25:32.839Z,16.87
2022-12-16T23:28:18.089Z,16.05
2022-12-16T23:31:03.655Z,16.75
2022-12-16T23:33:48.985Z,13.30
2022-12-16T23:36:34.643Z,11.32
2022-12-16T23:39:20.221Z,13.25
2022-12-16T23:42:05.881Z,13.05
2022-12-16T23:44:55.321Z,14.93
2022-12-16T23:47:41.924Z,17.30
2022-12-16T23:50:27.598Z,17.33
2022-12-16T23:53:28.400Z,17.75
2022-12-16T23:56:14.906Z,14.55
2022-12-16T23:59:00.376Z,15.48
